sensor_id;sensor_type;location;lat;lon;timestamp;pressure;altitude;pressure_sealevel;temperature;humidity
78671;BME280;68277;52.724;6.516;2024-02-15T00:00:28;101524.03;;;10.29;100.00
78671;BME280;68277;52.724;6.516;2024-02-15T00:02:53;101524.03;;;10.32;100.00
78671;BME280;68277;52.724;6.516;2024-02-15T00:05:19;101550.34;;;10.46;100.00
78671;BME280;68277;52.724;6.516;2024-02-15T00:07:45;101546.84;;;10.44;100.00
78671;BME280;68277;52.724;6.516;2024-02-15T00:10:16;101531.09;;;10.32;100.00
78671;BME280;68277;52.724;6.516;2024-02-15T00:12:42;101517.03;;;10.28;100.00
78671;BME280;68277;52.724;6.516;2024-02-15T00:15:08;101538.97;;;10.38;100.00
78671;BME280;68277;52.724;6.516;2024-02-15T00:17:34;101587.22;;;10.64;100.00
78671;BME280;68277;52.724;6.516;2024-02-15T00:20:01;101584.53;;;10.66;100.00
78671;BME280;68277;52.724;6.516;2024-02-15T00:22:28;101520.53;;;10.27;100.00
78671;BME280;68277;52.724;6.516;2024-02-15T00:24:55;101543.38;;;10.38;100.00
78671;BME280;68277;52.724;6.516;2024-02-15T00:27:21;101546.84;;;10.41;100.00
78671;BME280;68277;52.724;6.516;2024-02-15T00:29:46;101580.22;;;10.57;100.00
78671;BME280;68277;52.724;6.516;2024-02-15T00:32:12;101566.19;;;10.49;100.00
78671;BME280;68277;52.724;6.516;2024-02-15T00:34:37;101511.81;;;10.18;100.00
78671;BME280;68277;52.724;6.516;2024-02-15T00:37:04;101554.78;;;10.41;100.00
78671;BME280;68277;52.724;6.516;2024-02-15T00:39:30;101562.72;;;10.46;100.00
78671;BME280;68277;52.724;6.516;2024-02-15T00:41:58;101517.06;;;10.24;100.00
78671;BME280;68277;52.724;6.516;2024-02-15T00:44:26;101552.19;;;10.38;100.00
78671;BME280;68277;52.724;6.516;2024-02-15T00:46:52;101571.53;;;10.45;100.00
78671;BME280;68277;52.724;6.516;2024-02-15T00:49:36;101556.59;;;10.39;100.00
78671;BME280;68277;52.724;6.516;2024-02-15T00:52:04;101578.50;;;10.53;100.00
78671;BME280;68277;52.724;6.516;2024-02-15T00:54:29;101533.78;;;10.29;100.00
78671;BME280;68277;52.724;6.516;2024-02-15T00:56:55;101559.22;;;10.41;100.00
78671;BME280;68277;52.724;6.516;2024-02-15T00:59:21;101535.59;;;10.24;100.00
78671;BME280;68277;52.724;6.516;2024-02-15T01:01:46;101580.28;;;10.48;100.00
78671;BME280;68277;52.724;6.516;2024-02-15T01:04:13;101589.09;;;10.52;100.00
78671;BME280;68277;52.724;6.516;2024-02-15T01:06:38;101540.81;;;10.27;100.00
78671;BME280;68277;52.724;6.516;2024-02-15T01:09:04;101593.50;;;10.51;100.00
78671;BME280;68277;52.724;6.516;2024-02-15T01:11:31;101524.19;;;10.16;100.00
78671;BME280;68277;52.724;6.516;2024-02-15T01:14:01;101525.94;;;10.18;100.00
78671;BME280;68277;52.724;6.516;2024-02-15T01:16:26;101554.03;;;10.32;100.00
78671;BME280;68277;52.724;6.516;2024-02-15T01:18:52;101518.03;;;10.15;100.00
78671;BME280;68277;52.724;6.516;2024-02-15T01:21:18;101571.50;;;10.48;100.00
78671;BME280;68277;52.724;6.516;2024-02-15T01:23:45;101535.59;;;10.24;100.00
78671;BME280;68277;52.724;6.516;2024-02-15T01:26:12;101563.66;;;10.37;100.00
78671;BME280;68277;52.724;6.516;2024-02-15T01:28:38;101549.66;;;10.29;100.00
78671;BME280;68277;52.724;6.516;2024-02-15T01:31:03;101580.28;;;10.48;100.00
78671;BME280;68277;52.724;6.516;2024-02-15T01:33:29;101535.59;;;10.24;100.00
78671;BME280;68277;52.724;6.516;2024-02-15T01:35:57;101579.38;;;10.54;100.00
78671;BME280;68277;52.724;6.516;2024-02-15T01:38:23;101555.75;;;10.36;100.00
78671;BME280;68277;52.724;6.516;2024-02-15T01:40:48;101571.47;;;10.49;100.00
78671;BME280;68277;52.724;6.516;2024-02-15T01:43:14;101542.56;;;10.31;100.00
78671;BME280;68277;52.724;6.516;2024-02-15T01:45:41;101515.38;;;10.15;100.00
78671;BME280;68277;52.724;6.516;2024-02-15T01:48:06;101481.16;;;9.97;100.00
78671;BME280;68277;52.724;6.516;2024-02-15T01:50:32;101560.09;;;10.41;100.00
78671;BME280;68277;52.724;6.516;2024-02-15T01:52:59;101511.81;;;10.18;100.00
78671;BME280;68277;52.724;6.516;2024-02-15T01:55:27;101571.41;;;10.55;100.00
78671;BME280;68277;52.724;6.516;2024-02-15T01:57:53;101520.50;;;10.32;100.00
78671;BME280;68277;52.724;6.516;2024-02-15T02:00:19;101559.13;;;10.50;100.00
78671;BME280;68277;52.724;6.516;2024-02-15T02:02:46;101502.09;;;10.20;100.00
78671;BME280;68277;52.724;6.516;2024-02-15T02:05:12;101516.13;;;10.28;100.00
78671;BME280;68277;52.724;6.516;2024-02-15T02:07:38;101546.81;;;10.47;100.00
78671;BME280;68277;52.724;6.516;2024-02-15T02:10:04;101548.56;;;10.47;100.00
78671;BME280;68277;52.724;6.516;2024-02-15T02:12:31;101530.19;;;10.36;100.00
78671;BME280;68277;52.724;6.516;2024-02-15T02:14:58;101561.75;;;10.53;100.00
78671;BME280;68277;52.724;6.516;2024-02-15T02:17:24;101531.03;;;10.37;100.00
78671;BME280;68277;52.724;6.516;2024-02-15T02:22:31;101550.34;;;10.46;100.00
78671;BME280;68277;52.724;6.516;2024-02-15T02:25:08;101496.84;;;10.18;100.00
78671;BME280;68277;52.724;6.516;2024-02-15T02:27:34;101529.28;;;10.34;100.00
78671;BME280;68277;52.724;6.516;2024-02-15T02:30:03;101494.22;;;10.17;100.00
78671;BME280;68277;52.724;6.516;2024-02-15T02:32:34;101498.59;;;10.19;100.00
78671;BME280;68277;52.724;6.516;2024-02-15T02:35:02;101502.97;;;10.20;100.00
78671;BME280;68277;52.724;6.516;2024-02-15T02:37:28;101484.56;;;10.11;100.00
78671;BME280;68277;52.724;6.516;2024-02-15T02:39:54;101506.50;;;10.24;100.00
78671;BME280;68277;52.724;6.516;2024-02-15T02:42:20;101496.81;;;10.20;100.00
78671;BME280;68277;52.724;6.516;2024-02-15T02:44:46;101531.91;;;10.37;100.00
78671;BME280;68277;52.724;6.516;2024-02-15T02:47:12;101470.47;;;10.08;100.00
78671;BME280;68277;52.724;6.516;2024-02-15T02:49:38;101440.66;;;9.94;100.00
78671;BME280;68277;52.724;6.516;2024-02-15T02:52:04;101449.44;;;9.94;100.00
78671;BME280;68277;52.724;6.516;2024-02-15T02:54:29;101484.47;;;10.20;100.00
78671;BME280;68277;52.724;6.516;2024-02-15T02:56:58;101448.50;;;10.01;100.00
78671;BME280;68277;52.724;6.516;2024-02-15T02:59:24;101498.53;;;10.25;100.00
78671;BME280;68277;52.724;6.516;2024-02-15T03:01:50;101466.91;;;10.10;100.00
78671;BME280;68277;52.724;6.516;2024-02-15T03:04:17;101528.31;;;10.46;100.00
78671;BME280;68277;52.724;6.516;2024-02-15T03:06:43;101543.16;;;10.59;100.00
78671;BME280;68277;52.724;6.516;2024-02-15T03:09:09;101480.94;;;10.21;100.00
78671;BME280;68277;52.724;6.516;2024-02-15T03:11:36;101468.69;;;10.14;100.00
78671;BME280;68277;52.724;6.516;2024-02-15T03:14:02;101465.16;;;10.14;100.00
78671;BME280;68277;52.724;6.516;2024-02-15T03:16:33;101451.09;;;10.07;100.00
78671;BME280;68277;52.724;6.516;2024-02-15T03:19:03;101461.59;;;10.10;100.00
78671;BME280;68277;52.724;6.516;2024-02-15T03:21:30;101542.25;;;10.61;100.00
78671;BME280;68277;52.724;6.516;2024-02-15T03:23:55;101496.66;;;10.35;100.00
78671;BME280;68277;52.724;6.516;2024-02-15T03:26:31;101546.66;;;10.61;100.00
78671;BME280;68277;52.724;6.516;2024-02-15T03:29:06;101494.03;;;10.34;100.00
78671;BME280;68277;52.724;6.516;2024-02-15T03:31:35;101501.03;;;10.41;100.00
78671;BME280;68277;52.724;6.516;2024-02-15T03:34:05;101501.84;;;10.44;100.00
78671;BME280;68277;52.724;6.516;2024-02-15T03:36:31;101461.56;;;10.19;100.00
78671;BME280;68277;52.724;6.516;2024-02-15T03:38:57;101479.97;;;10.30;100.00
78671;BME280;68277;52.724;6.516;2024-02-15T03:41:22;101500.09;;;10.45;100.00
78671;BME280;68277;52.724;6.516;2024-02-15T03:43:48;101476.44;;;10.29;100.00
78671;BME280;68277;52.724;6.516;2024-02-15T03:46:14;101455.38;;;10.20;100.00
78671;BME280;68277;52.724;6.516;2024-02-15T03:48:43;101451.88;;;10.18;100.00
78671;BME280;68277;52.724;6.516;2024-02-15T03:51:18;101496.56;;;10.44;100.00
78671;BME280;68277;52.724;6.516;2024-02-15T03:53:48;101530.72;;;10.67;100.00
78671;BME280;68277;52.724;6.516;2024-02-15T03:56:14;101550.91;;;10.75;100.00
78671;BME280;68277;52.724;6.516;2024-02-15T03:58:39;101522.81;;;10.61;100.00
78671;BME280;68277;52.724;6.516;2024-02-15T04:01:05;101499.16;;;10.49;100.00
78671;BME280;68277;52.724;6.516;2024-02-15T04:03:32;101494.84;;;10.40;100.00
78671;BME280;68277;52.724;6.516;2024-02-15T04:05:59;101536.00;;;10.65;100.00
78671;BME280;68277;52.724;6.516;2024-02-15T04:08:34;101523.69;;;10.63;100.00
78671;BME280;68277;52.724;6.516;2024-02-15T04:11:00;101544.75;;;10.72;100.00
78671;BME280;68277;52.724;6.516;2024-02-15T04:13:26;101533.34;;;10.68;100.00
78671;BME280;68277;52.724;6.516;2024-02-15T04:15:52;101557.03;;;10.77;100.00
78671;BME280;68277;52.724;6.516;2024-02-15T04:18:19;101551.75;;;10.77;100.00
78671;BME280;68277;52.724;6.516;2024-02-15T04:20:44;101542.09;;;10.73;100.00
78671;BME280;68277;52.724;6.516;2024-02-15T04:23:12;101546.44;;;10.79;100.00
78671;BME280;68277;52.724;6.516;2024-02-15T04:25:40;101497.38;;;10.49;100.00
78671;BME280;68277;52.724;6.516;2024-02-15T04:28:06;101501.72;;;10.53;100.00
78671;BME280;68277;52.724;6.516;2024-02-15T04:30:34;101475.41;;;10.43;100.00
78671;BME280;68277;52.724;6.516;2024-02-15T04:33:00;101507.81;;;10.64;100.00
78671;BME280;68277;52.724;6.516;2024-02-15T04:35:26;101513.88;;;10.69;100.00
78671;BME280;68277;52.724;6.516;2024-02-15T04:37:53;101514.78;;;10.70;100.00
78671;BME280;68277;52.724;6.516;2024-02-15T04:40:19;101501.59;;;10.65;100.00
78671;BME280;68277;52.724;6.516;2024-02-15T04:42:44;101472.69;;;10.50;100.00
78671;BME280;68277;52.724;6.516;2024-02-15T04:45:10;101468.25;;;10.52;100.00
78671;BME280;68277;52.724;6.516;2024-02-15T04:47:37;101519.91;;;10.82;100.00
78671;BME280;68277;52.724;6.516;2024-02-15T04:50:03;101498.91;;;10.68;100.00
78671;BME280;68277;52.724;6.516;2024-02-15T04:52:31;101512.06;;;10.76;100.00
78671;BME280;68277;52.724;6.516;2024-02-15T04:54:56;101491.09;;;10.59;100.00
78671;BME280;68277;52.724;6.516;2024-02-15T04:57:27;101502.44;;;10.67;100.00
78671;BME280;68277;52.724;6.516;2024-02-15T04:59:55;101478.78;;;10.55;100.00
78671;BME280;68277;52.724;6.516;2024-02-15T05:02:21;101490.16;;;10.63;100.00
78671;BME280;68277;52.724;6.516;2024-02-15T05:04:50;101464.69;;;10.53;100.00
78671;BME280;68277;52.724;6.516;2024-02-15T05:07:21;101505.81;;;10.83;100.00
78671;BME280;68277;52.724;6.516;2024-02-15T05:09:50;101472.47;;;10.67;100.00
78671;BME280;68277;52.724;6.516;2024-02-15T05:12:24;101489.97;;;10.77;100.00
78671;BME280;68277;52.724;6.516;2024-02-15T05:14:50;101473.31;;;10.67;100.00
78671;BME280;68277;52.724;6.516;2024-02-15T05:17:17;101448.91;;;10.47;100.00
78671;BME280;68277;52.724;6.516;2024-02-15T05:19:42;101448.88;;;10.50;100.00
78671;BME280;68277;52.724;6.516;2024-02-15T05:22:08;101457.59;;;10.57;100.00
78671;BME280;68277;52.724;6.516;2024-02-15T05:24:33;101399.75;;;10.25;100.00
78671;BME280;68277;52.724;6.516;2024-02-15T05:26:59;101484.78;;;10.71;100.00
78671;BME280;68277;52.724;6.516;2024-02-15T05:29:25;101438.31;;;10.47;100.00
78671;BME280;68277;52.724;6.516;2024-02-15T05:31:50;101428.63;;;10.45;100.00
78671;BME280;68277;52.724;6.516;2024-02-15T05:34:17;101412.00;;;10.35;100.00
78671;BME280;68277;52.724;6.516;2024-02-15T05:36:43;101431.25;;;10.48;100.00
78671;BME280;68277;52.724;6.516;2024-02-15T05:39:09;101475.03;;;10.73;100.00
78671;BME280;68277;52.724;6.516;2024-02-15T05:41:37;101397.16;;;10.23;100.00
78671;BME280;68277;52.724;6.516;2024-02-15T05:44:02;101475.91;;;10.72;100.00
78671;BME280;68277;52.724;6.516;2024-02-15T05:46:34;101426.97;;;10.38;100.00
78671;BME280;68277;52.724;6.516;2024-02-15T05:49:02;101482.13;;;10.69;100.00
78671;BME280;68277;52.724;6.516;2024-02-15T05:51:30;101447.06;;;10.52;100.00
78671;BME280;68277;52.724;6.516;2024-02-15T05:53:56;101411.13;;;10.35;100.00
78671;BME280;68277;52.724;6.516;2024-02-15T05:56:24;101400.69;;;10.24;100.00
78671;BME280;68277;52.724;6.516;2024-02-15T05:58:52;101430.50;;;10.38;100.00
78671;BME280;68277;52.724;6.516;2024-02-15T06:01:17;101352.41;;;10.02;100.00
78671;BME280;68277;52.724;6.516;2024-02-15T06:03:43;101472.47;;;10.65;100.00
78671;BME280;68277;52.724;6.516;2024-02-15T06:06:10;101376.13;;;10.10;100.00
78671;BME280;68277;52.724;6.516;2024-02-15T06:08:37;101432.28;;;10.36;100.00
78671;BME280;68277;52.724;6.516;2024-02-15T06:11:05;101456.72;;;10.56;100.00
78671;BME280;68277;52.724;6.516;2024-02-15T06:13:31;101418.19;;;10.32;100.00
78671;BME280;68277;52.724;6.516;2024-02-15T06:15:57;101419.97;;;10.34;100.00
78671;BME280;68277;52.724;6.516;2024-02-15T06:18:25;101447.06;;;10.52;100.00
78671;BME280;68277;52.724;6.516;2024-02-15T06:20:53;101392.75;;;10.22;100.00
78671;BME280;68277;52.724;6.516;2024-02-15T06:23:19;101397.94;;;10.30;100.00
78671;BME280;68277;52.724;6.516;2024-02-15T06:25:50;101419.78;;;10.47;100.00
78671;BME280;68277;52.724;6.516;2024-02-15T06:28:17;101421.50;;;10.53;100.00
78671;BME280;68277;52.724;6.516;2024-02-15T06:31:09;101410.09;;;10.48;100.00
78671;BME280;68277;52.724;6.516;2024-02-15T06:33:53;101413.56;;;10.48;100.00
78671;BME280;68277;52.724;6.516;2024-02-15T06:36:46;101395.19;;;10.41;100.00
78671;BME280;68277;52.724;6.516;2024-02-15T06:39:30;101410.91;;;10.53;100.00
78671;BME280;68277;52.724;6.516;2024-02-15T06:42:11;101363.59;;;10.27;100.00
78671;BME280;68277;52.724;6.516;2024-02-15T06:44:40;101385.41;;;10.44;100.00
78671;BME280;68277;52.724;6.516;2024-02-15T06:47:07;101367.06;;;10.34;100.00
78671;BME280;68277;52.724;6.516;2024-02-15T06:49:33;101394.19;;;10.46;100.00
78671;BME280;68277;52.724;6.516;2024-02-15T06:51:59;101383.75;;;10.39;100.00
78671;BME280;68277;52.724;6.516;2024-02-15T06:54:28;101338.22;;;10.12;100.00
78671;BME280;68277;52.724;6.516;2024-02-15T06:56:53;101438.00;;;10.70;100.00
78671;BME280;68277;52.724;6.516;2024-02-15T06:59:20;101414.38;;;10.56;100.00
78671;BME280;68277;52.724;6.516;2024-02-15T07:01:50;101406.50;;;10.52;100.00
78671;BME280;68277;52.724;6.516;2024-02-15T07:04:18;101386.34;;;10.40;100.00
78671;BME280;68277;52.724;6.516;2024-02-15T07:06:44;101431.00;;;10.66;100.00
78671;BME280;68277;52.724;6.516;2024-02-15T07:09:13;101431.78;;;10.72;100.00
78671;BME280;68277;52.724;6.516;2024-02-15T07:11:40;101388.06;;;10.46;100.00
78671;BME280;68277;52.724;6.516;2024-02-15T07:14:06;101445.03;;;10.72;100.00
78671;BME280;68277;52.724;6.516;2024-02-15T07:16:34;101458.16;;;10.80;100.00
78671;BME280;68277;52.724;6.516;2024-02-15T07:19:00;101399.50;;;10.46;100.00
78671;BME280;68277;52.724;6.516;2024-02-15T07:21:26;101458.13;;;10.81;100.00
78671;BME280;68277;52.724;6.516;2024-02-15T07:23:55;101425.78;;;10.61;100.00
78671;BME280;68277;52.724;6.516;2024-02-15T07:26:24;101395.19;;;10.41;100.00
78671;BME280;68277;52.724;6.516;2024-02-15T07:28:52;101462.59;;;10.81;100.00
78671;BME280;68277;52.724;6.516;2024-02-15T07:31:21;101437.16;;;10.68;100.00
78671;BME280;68277;52.724;6.516;2024-02-15T07:33:49;101457.28;;;10.81;100.00
78671;BME280;68277;52.724;6.516;2024-02-15T07:39:07;101375.81;;;10.39;100.00
78671;BME280;68277;52.724;6.516;2024-02-15T07:41:38;101373.16;;;10.37;100.00
78671;BME280;68277;52.724;6.516;2024-02-15T07:44:04;101439.63;;;10.80;100.00
78671;BME280;68277;52.724;6.516;2024-02-15T07:46:30;101348.66;;;10.23;100.00
78671;BME280;68277;52.724;6.516;2024-02-15T07:48:58;101369.66;;;10.35;100.00
78671;BME280;68277;52.724;6.516;2024-02-15T07:51:24;101359.13;;;10.34;100.00
78671;BME280;68277;52.724;6.516;2024-02-15T07:53:51;101357.44;;;10.26;100.00
78671;BME280;68277;52.724;6.516;2024-02-15T07:56:17;101426.53;;;10.69;100.00
78671;BME280;68277;52.724;6.516;2024-02-15T07:58:44;101427.47;;;10.65;100.00
78671;BME280;68277;52.724;6.516;2024-02-15T08:01:15;101371.44;;;10.35;100.00
78671;BME280;68277;52.724;6.516;2024-02-15T08:03:47;101454.66;;;10.78;100.00
78671;BME280;68277;52.724;6.516;2024-02-15T08:06:16;101383.72;;;10.40;100.00
78671;BME280;68277;52.724;6.516;2024-02-15T08:08:47;101478.28;;;10.93;100.00
78671;BME280;68277;52.724;6.516;2024-02-15T08:11:13;101365.31;;;10.29;100.00
78671;BME280;68277;52.724;6.516;2024-02-15T08:13:50;101466.06;;;10.84;100.00
78671;BME280;68277;52.724;6.516;2024-02-15T08:16:18;101448.56;;;10.73;100.00
78671;BME280;68277;52.724;6.516;2024-02-15T08:18:44;101400.34;;;10.50;100.00
78671;BME280;68277;52.724;6.516;2024-02-15T08:21:11;101408.19;;;10.56;100.00
78671;BME280;68277;52.724;6.516;2024-02-15T08:23:37;101424.84;;;10.67;100.00
78671;BME280;68277;52.724;6.516;2024-02-15T08:26:04;101374.91;;;10.40;100.00
78671;BME280;68277;52.724;6.516;2024-02-15T08:28:29;101421.31;;;10.66;100.00
78671;BME280;68277;52.724;6.516;2024-02-15T08:30:58;101466.72;;;10.98;100.00
78671;BME280;68277;52.724;6.516;2024-02-15T08:33:24;101454.44;;;10.94;100.00
78671;BME280;68277;52.724;6.516;2024-02-15T08:35:50;101368.44;;;10.60;100.00
78671;BME280;68277;52.724;6.516;2024-02-15T08:38:16;101385.84;;;10.78;100.00
78671;BME280;68277;52.724;6.516;2024-02-15T08:40:42;101384.91;;;10.80;100.00
78671;BME280;68277;52.724;6.516;2024-02-15T08:43:09;101408.78;;;10.77;100.00
78671;BME280;68277;52.724;6.516;2024-02-15T08:45:35;101344.94;;;10.38;100.00
78671;BME280;68277;52.724;6.516;2024-02-15T08:48:00;101415.72;;;10.86;100.00
78671;BME280;68277;52.724;6.516;2024-02-15T08:50:30;101365.84;;;10.57;100.00
78671;BME280;68277;52.724;6.516;2024-02-15T08:52:56;101469.22;;;11.11;100.00
78671;BME280;68277;52.724;6.516;2024-02-15T08:55:21;101422.81;;;10.85;100.00
78671;BME280;68277;52.724;6.516;2024-02-15T08:57:52;101459.56;;;11.05;100.00
78671;BME280;68277;52.724;6.516;2024-02-15T09:00:20;101416.66;;;10.82;100.00
78671;BME280;68277;52.724;6.516;2024-02-15T09:02:46;101395.66;;;10.70;100.00
78671;BME280;68277;52.724;6.516;2024-02-15T09:05:13;101418.41;;;10.83;100.00
78671;BME280;68277;52.724;6.516;2024-02-15T09:07:43;101345.72;;;10.44;100.00
78671;BME280;68277;52.724;6.516;2024-02-15T09:10:10;101376.34;;;10.63;100.00
78671;BME280;68277;52.724;6.516;2024-02-15T09:12:40;101434.00;;;11.02;100.00
78671;BME280;68277;52.724;6.516;2024-02-15T09:15:12;101391.09;;;10.79;100.00
78671;BME280;68277;52.724;6.516;2024-02-15T09:17:38;101436.50;;;11.13;100.00
78671;BME280;68277;52.724;6.516;2024-02-15T09:20:08;101418.88;;;11.11;100.00
78671;BME280;68277;52.724;6.516;2024-02-15T09:22:34;101412.78;;;11.06;100.00
78671;BME280;68277;52.724;6.516;2024-02-15T09:25:02;101384.72;;;10.94;100.00
78671;BME280;68277;52.724;6.516;2024-02-15T09:27:28;101400.41;;;11.05;100.00
78671;BME280;68277;52.724;6.516;2024-02-15T09:29:54;101390.81;;;10.99;100.00
78671;BME280;68277;52.724;6.516;2024-02-15T09:32:21;101417.84;;;11.21;100.00
78671;BME280;68277;52.724;6.516;2024-02-15T09:34:48;101428.44;;;11.21;100.00
78671;BME280;68277;52.724;6.516;2024-02-15T09:37:14;101439.75;;;11.32;100.00
78671;BME280;68277;52.724;6.516;2024-02-15T09:39:40;101417.94;;;11.16;100.00
78671;BME280;68277;52.724;6.516;2024-02-15T09:44:56;101416.13;;;11.18;100.00
78671;BME280;68277;52.724;6.516;2024-02-15T09:47:23;101367.06;;;10.93;100.00
78671;BME280;68277;52.724;6.516;2024-02-15T09:49:49;101405.53;;;11.17;100.00
78671;BME280;68277;52.724;6.516;2024-02-15T09:52:15;101403.72;;;11.20;100.00
78671;BME280;68277;52.724;6.516;2024-02-15T09:54:43;101376.41;;;11.15;100.00
78671;BME280;68277;52.724;6.516;2024-02-15T09:57:10;101391.19;;;11.30;100.00
78671;BME280;68277;52.724;6.516;2024-02-15T09:59:37;101364.88;;;11.21;100.00
78671;BME280;68277;52.724;6.516;2024-02-15T10:02:02;101346.44;;;11.12;100.00
78671;BME280;68277;52.724;6.516;2024-02-15T10:04:28;101393.66;;;11.40;100.00
78671;BME280;68277;52.724;6.516;2024-02-15T10:06:54;101361.16;;;11.29;100.00
78671;BME280;68277;52.724;6.516;2024-02-15T10:09:27;101428.53;;;11.70;100.00
78671;BME280;68277;52.724;6.516;2024-02-15T10:11:56;101389.13;;;11.48;100.00
78671;BME280;68277;52.724;6.516;2024-02-15T10:14:28;101392.69;;;11.46;100.00
78671;BME280;68277;52.724;6.516;2024-02-15T10:16:54;101422.34;;;11.66;100.00
78671;BME280;68277;52.724;6.516;2024-02-15T10:19:20;101396.94;;;11.56;100.00
78671;BME280;68277;52.724;6.516;2024-02-15T10:21:54;101403.91;;;11.60;100.00
78671;BME280;68277;52.724;6.516;2024-02-15T10:24:22;101406.56;;;11.60;100.00
78671;BME280;68277;52.724;6.516;2024-02-15T10:26:50;101440.75;;;11.78;100.00
78671;BME280;68277;52.724;6.516;2024-02-15T10:29:16;101443.34;;;11.81;100.00
78671;BME280;68277;52.724;6.516;2024-02-15T10:32:08;101432.78;;;11.80;100.00
78671;BME280;68277;52.724;6.516;2024-02-15T10:34:43;101396.97;;;11.53;100.00
78671;BME280;68277;52.724;6.516;2024-02-15T10:37:14;101416.16;;;11.67;100.00
78671;BME280;68277;52.724;6.516;2024-02-15T10:39:44;101425.91;;;11.68;100.00
78671;BME280;68277;52.724;6.516;2024-02-15T10:42:09;101421.56;;;11.62;100.00
78671;BME280;68277;52.724;6.516;2024-02-15T10:44:38;101446.94;;;11.79;100.00
78671;BME280;68277;52.724;6.516;2024-02-15T10:47:07;101428.53;;;11.70;100.00
78671;BME280;68277;52.724;6.516;2024-02-15T10:49:34;101391.69;;;11.53;100.00
78671;BME280;68277;52.724;6.516;2024-02-15T10:52:01;101426.72;;;11.72;100.00
78671;BME280;68277;52.724;6.516;2024-02-15T10:57:04;101429.34;;;11.73;100.00
78671;BME280;68277;52.724;6.516;2024-02-15T10:59:48;101374.25;;;11.40;100.00
78671;BME280;68277;52.724;6.516;2024-02-15T11:02:29;101429.34;;;11.75;100.00
78671;BME280;68277;52.724;6.516;2024-02-15T11:05:07;101400.38;;;11.59;100.00
78671;BME280;68277;52.724;6.516;2024-02-15T11:07:37;101431.09;;;11.74;100.00
78671;BME280;68277;52.724;6.516;2024-02-15T11:10:12;101397.75;;;11.59;100.00
78671;BME280;68277;52.724;6.516;2024-02-15T11:12:42;101429.34;;;11.75;100.00
78671;BME280;68277;52.724;6.516;2024-02-15T11:15:09;101428.50;;;11.73;100.00
78671;BME280;68277;52.724;6.516;2024-02-15T11:23:00;101436.38;;;11.76;100.00
78671;BME280;68277;52.724;6.516;2024-02-15T11:25:33;101424.00;;;11.76;100.00
78671;BME280;68277;52.724;6.516;2024-02-15T11:30:49;101404.72;;;11.65;100.00
78671;BME280;68277;52.724;6.516;2024-02-15T11:33:27;101393.38;;;11.57;100.00
78671;BME280;68277;52.724;6.516;2024-02-15T11:36:11;101422.22;;;11.77;100.00
78671;BME280;68277;52.724;6.516;2024-02-15T11:38:38;101411.69;;;11.72;100.00
78671;BME280;68277;52.724;6.516;2024-02-15T11:41:09;101408.91;;;11.78;100.00
78671;BME280;68277;52.724;6.516;2024-02-15T11:43:48;101408.03;;;11.79;100.00
78671;BME280;68277;52.724;6.516;2024-02-15T11:46:25;101408.03;;;11.78;100.00
78671;BME280;68277;52.724;6.516;2024-02-15T11:48:52;101390.59;;;11.64;100.00
78671;BME280;68277;52.724;6.516;2024-02-15T11:54:09;101401.00;;;11.77;100.00
78671;BME280;68277;52.724;6.516;2024-02-15T11:59:13;101408.91;;;11.78;100.00
78671;BME280;68277;52.724;6.516;2024-02-15T12:01:55;101390.44;;;11.74;100.00
78671;BME280;68277;52.724;6.516;2024-02-15T12:04:41;101373.00;;;11.59;100.00
78671;BME280;68277;52.724;6.516;2024-02-15T12:07:26;101377.38;;;11.61;100.00
78671;BME280;68277;52.724;6.516;2024-02-15T12:10:19;101374.81;;;11.57;100.00
78671;BME280;68277;52.724;6.516;2024-02-15T12:13:03;101387.91;;;11.66;100.00
78671;BME280;68277;52.724;6.516;2024-02-15T12:15:59;101394.06;;;11.66;100.00
78671;BME280;68277;52.724;6.516;2024-02-15T12:18:43;101393.22;;;11.64;100.00
78671;BME280;68277;52.724;6.516;2024-02-15T12:21:13;101355.50;;;11.50;100.00
78671;BME280;68277;52.724;6.516;2024-02-15T12:23:40;101382.63;;;11.68;100.00
78671;BME280;68277;52.724;6.516;2024-02-15T12:26:07;101356.34;;;11.52;100.00
78671;BME280;68277;52.724;6.516;2024-02-15T12:28:33;101380.72;;;11.74;100.00
78671;BME280;68277;52.724;6.516;2024-02-15T12:31:01;101290.69;;;11.21;100.00
78671;BME280;68277;52.724;6.516;2024-02-15T12:33:27;101365.00;;;11.62;100.00
78671;BME280;68277;52.724;6.516;2024-02-15T12:36:04;101332.66;;;11.43;100.00
78671;BME280;68277;52.724;6.516;2024-02-15T12:38:34;101317.75;;;11.36;100.00
78671;BME280;68277;52.724;6.516;2024-02-15T12:41:03;101369.31;;;11.69;100.00
78671;BME280;68277;52.724;6.516;2024-02-15T12:43:29;101357.81;;;11.70;100.00
78671;BME280;68277;52.724;6.516;2024-02-15T12:45:55;101336.84;;;11.55;100.00
78671;BME280;68277;52.724;6.516;2024-02-15T12:48:22;101367.47;;;11.74;100.00
78671;BME280;68277;52.724;6.516;2024-02-15T12:50:47;101337.78;;;11.54;100.00
78671;BME280;68277;52.724;6.516;2024-02-15T12:53:20;101377.19;;;11.75;100.00
78671;BME280;68277;52.724;6.516;2024-02-15T12:55:52;101376.31;;;11.75;100.00
78671;BME280;68277;52.724;6.516;2024-02-15T12:58:20;101295.78;;;11.31;100.00
78671;BME280;68277;52.724;6.516;2024-02-15T13:00:45;101359.66;;;11.63;100.00
78671;BME280;68277;52.724;6.516;2024-02-15T13:03:11;101364.03;;;11.69;100.00
78671;BME280;68277;52.724;6.516;2024-02-15T13:05:39;101340.38;;;11.55;100.00
78671;BME280;68277;52.724;6.516;2024-02-15T13:08:05;101315.97;;;11.38;100.00
78671;BME280;68277;52.724;6.516;2024-02-15T13:10:35;101343.09;;;11.52;100.00